KGUL

Gunnison

Gunnison, Texas, USA
METAR KGUL 250455Z AUTO 12007KT 10SM CLR 27/23 A3003 RMK A01
Observed Flight Rules
May-25 @ 04:55 UTC (36 minutes ago) Visual Flight Rules
Wind Visibility Clouds
120° at 7 knots 10 miles
  • Clear skies
Temperatures Readings
Current 27°C / 81°F
Dewpoint 23°C / 73°F
Humidity 79%
Altimeter 30.03" Hg
Pressure 1017 hPa
Elevation 30
METAR KGUL 250455Z AUTO 12007KT 10SM CLR 27/23 A3003 RMK A01
Observed Flight Rules
May-25 @ 04:55 UTC
(36 minutes ago)
VFR
Wind Visibility
120° at 7 knots 10 miles
Clouds
  • Clear skies
Temperature Dewpoint
27°C / 81°F 23°C / 73°F
Humidity Altimeter Pressure
79% 30.03" Hg 1017 hPa